sensor_id;sensor_type;location;lat;lon;timestamp;pressure;altitude;pressure_sealevel;temperature;humidity
51315;BME280;65787;59.922;10.742;2023-04-25T00:02:21;99245.16;;;10.55;48.10
51315;BME280;65787;59.922;10.742;2023-04-25T00:04:47;99248.47;;;10.69;48.66
51315;BME280;65787;59.922;10.742;2023-04-25T00:07:14;99244.19;;;10.68;48.73
51315;BME280;65787;59.922;10.742;2023-04-25T00:09:39;99234.03;;;10.70;48.75
51315;BME280;65787;59.922;10.742;2023-04-25T00:12:05;99237.59;;;10.64;48.45
51315;BME280;65787;59.922;10.742;2023-04-25T00:14:30;99229.53;;;10.64;48.55
51315;BME280;65787;59.922;10.742;2023-04-25T00:16:58;99233.44;;;10.68;48.76
51315;BME280;65787;59.922;10.742;2023-04-25T00:19:24;99226.47;;;10.60;48.92
51315;BME280;65787;59.922;10.742;2023-04-25T00:21:49;99225.50;;;10.55;49.22
51315;BME280;65787;59.922;10.742;2023-04-25T00:24:15;99230.66;;;10.56;49.32
51315;BME280;65787;59.922;10.742;2023-04-25T00:26:40;99232.69;;;10.61;48.29
51315;BME280;65787;59.922;10.742;2023-04-25T00:29:05;99221.94;;;10.42;48.39
51315;BME280;65787;59.922;10.742;2023-04-25T00:31:30;99220.66;;;10.45;48.72
51315;BME280;65787;59.922;10.742;2023-04-25T00:33:56;99219.91;;;10.38;49.54
51315;BME280;65787;59.922;10.742;2023-04-25T00:36:21;99208.91;;;10.46;49.32
51315;BME280;65787;59.922;10.742;2023-04-25T00:38:47;99218.16;;;10.50;48.97
51315;BME280;65787;59.922;10.742;2023-04-25T00:41:12;99216.13;;;10.45;48.89
51315;BME280;65787;59.922;10.742;2023-04-25T00:43:37;99219.91;;;10.38;48.74
51315;BME280;65787;59.922;10.742;2023-04-25T00:46:04;99212.41;;;10.46;48.87
51315;BME280;65787;59.922;10.742;2023-04-25T00:48:29;99211.13;;;10.49;48.35
51315;BME280;65787;59.922;10.742;2023-04-25T00:50:56;99190.50;;;10.50;48.64
51315;BME280;65787;59.922;10.742;2023-04-25T00:53:22;99186.59;;;10.45;48.53
51315;BME280;65787;59.922;10.742;2023-04-25T00:55:48;99192.81;;;10.46;48.61
51315;BME280;65787;59.922;10.742;2023-04-25T00:58:16;99184.94;;;10.26;48.55
51315;BME280;65787;59.922;10.742;2023-04-25T01:00:41;99195.44;;;10.27;48.97
51315;BME280;65787;59.922;10.742;2023-04-25T01:03:07;99189.28;;;10.27;49.03
51315;BME280;65787;59.922;10.742;2023-04-25T01:05:32;99181.50;;;10.19;48.40
51315;BME280;65787;59.922;10.742;2023-04-25T01:07:58;99188.53;;;10.20;49.56
51315;BME280;65787;59.922;10.742;2023-04-25T01:10:23;99186.78;;;10.07;48.65
51315;BME280;65787;59.922;10.742;2023-04-25T01:12:49;99184.88;;;10.14;49.23
51315;BME280;65787;59.922;10.742;2023-04-25T01:15:14;99180.69;;;10.18;48.95
51315;BME280;65787;59.922;10.742;2023-04-25T01:17:39;99183.97;;;10.20;48.81
51315;BME280;65787;59.922;10.742;2023-04-25T01:20:06;99175.97;;;10.14;49.17
51315;BME280;65787;59.922;10.742;2023-04-25T01:22:32;99188.28;;;10.21;48.50
51315;BME280;65787;59.922;10.742;2023-04-25T01:24:58;99188.53;;;10.20;48.68
51315;BME280;65787;59.922;10.742;2023-04-25T01:27:24;99174.94;;;10.15;49.12
51315;BME280;65787;59.922;10.742;2023-04-25T01:29:50;99198.50;;;10.13;48.15
51315;BME280;65787;59.922;10.742;2023-04-25T01:32:16;99186.06;;;10.18;48.57
51315;BME280;65787;59.922;10.742;2023-04-25T01:34:42;99200.97;;;10.14;48.19
51315;BME280;65787;59.922;10.742;2023-04-25T01:37:07;99190.13;;;10.21;48.96
51315;BME280;65787;59.922;10.742;2023-04-25T01:39:32;99112.69;;;9.69;48.17
51315;BME280;65787;59.922;10.742;2023-04-25T01:41:58;99187.09;;;10.17;48.15
51315;BME280;65787;59.922;10.742;2023-04-25T01:44:23;99172.03;;;10.16;49.01
51315;BME280;65787;59.922;10.742;2023-04-25T01:46:49;99172.41;;;10.20;49.42
51315;BME280;65787;59.922;10.742;2023-04-25T01:49:14;99170.59;;;10.14;48.65
51315;BME280;65787;59.922;10.742;2023-04-25T01:51:39;99169.59;;;10.15;48.62
51315;BME280;65787;59.922;10.742;2023-04-25T01:54:05;99171.19;;;10.16;47.92
51315;BME280;65787;59.922;10.742;2023-04-25T01:56:31;99172.78;;;10.23;48.71
51315;BME280;65787;59.922;10.742;2023-04-25T01:58:57;99180.31;;;10.15;47.91
51315;BME280;65787;59.922;10.742;2023-04-25T02:01:22;99180.09;;;10.16;48.04
51315;BME280;65787;59.922;10.742;2023-04-25T02:03:47;99175.00;;;10.08;48.45
51315;BME280;65787;59.922;10.742;2023-04-25T02:06:13;99178.22;;;10.17;48.90
51315;BME280;65787;59.922;10.742;2023-04-25T02:08:38;99187.59;;;10.07;48.48
51315;BME280;65787;59.922;10.742;2023-04-25T02:11:03;99170.75;;;10.00;48.02
51315;BME280;65787;59.922;10.742;2023-04-25T02:13:30;99177.09;;;10.06;48.32
51315;BME280;65787;59.922;10.742;2023-04-25T02:15:55;99184.16;;;10.00;48.46
51315;BME280;65787;59.922;10.742;2023-04-25T02:18:20;99167.78;;;9.90;47.96
51315;BME280;65787;59.922;10.742;2023-04-25T02:20:46;99180.28;;;9.96;48.75
51315;BME280;65787;59.922;10.742;2023-04-25T02:23:11;99186.66;;;9.77;47.75
51315;BME280;65787;59.922;10.742;2023-04-25T02:25:37;99183.72;;;10.03;48.03
51315;BME280;65787;59.922;10.742;2023-04-25T02:28:02;99184.25;;;10.12;47.99
51315;BME280;65787;59.922;10.742;2023-04-25T02:30:27;99191.69;;;10.10;47.81
51315;BME280;65787;59.922;10.742;2023-04-25T02:32:53;99173.38;;;10.07;48.06
51315;BME280;65787;59.922;10.742;2023-04-25T02:35:19;99184.16;;;10.00;48.84
51315;BME280;65787;59.922;10.742;2023-04-25T02:37:44;99174.63;;;10.04;48.56
51315;BME280;65787;59.922;10.742;2023-04-25T02:40:10;99175.22;;;10.06;49.24
51315;BME280;65787;59.922;10.742;2023-04-25T02:42:35;99183.78;;;9.97;47.76
51315;BME280;65787;59.922;10.742;2023-04-25T02:45:01;99177.00;;;9.94;49.57
51315;BME280;65787;59.922;10.742;2023-04-25T02:47:26;99188.16;;;9.91;49.36
51315;BME280;65787;59.922;10.742;2023-04-25T02:49:52;99185.56;;;9.84;48.68
51315;BME280;65787;59.922;10.742;2023-04-25T02:52:17;99171.09;;;9.85;48.28
51315;BME280;65787;59.922;10.742;2023-04-25T02:54:43;99180.69;;;9.75;48.53
51315;BME280;65787;59.922;10.742;2023-04-25T02:57:08;99179.81;;;9.56;48.55
51315;BME280;65787;59.922;10.742;2023-04-25T02:59:33;99183.56;;;9.73;49.29
51315;BME280;65787;59.922;10.742;2023-04-25T03:01:58;99179.50;;;9.71;48.35
51315;BME280;65787;59.922;10.742;2023-04-25T03:04:24;99175.50;;;9.80;48.91
51315;BME280;65787;59.922;10.742;2023-04-25T03:06:49;99182.34;;;9.76;48.80
51315;BME280;65787;59.922;10.742;2023-04-25T03:09:15;99173.31;;;9.70;49.36
51315;BME280;65787;59.922;10.742;2023-04-25T03:11:40;99179.97;;;9.36;48.23
51315;BME280;65787;59.922;10.742;2023-04-25T03:14:05;99192.19;;;9.57;49.77
51315;BME280;65787;59.922;10.742;2023-04-25T03:16:31;99179.19;;;9.60;49.86
51315;BME280;65787;59.922;10.742;2023-04-25T03:18:56;99179.03;;;9.48;49.52
51315;BME280;65787;59.922;10.742;2023-04-25T03:21:22;99183.91;;;9.58;50.04
51315;BME280;65787;59.922;10.742;2023-04-25T03:23:47;99185.59;;;9.53;49.39
51315;BME280;65787;59.922;10.742;2023-04-25T03:26:12;99169.16;;;9.49;49.50
51315;BME280;65787;59.922;10.742;2023-04-25T03:28:38;99169.44;;;9.41;48.97
51315;BME280;65787;59.922;10.742;2023-04-25T03:31:04;99157.28;;;9.38;49.89
51315;BME280;65787;59.922;10.742;2023-04-25T03:33:30;99172.84;;;9.55;50.02
51315;BME280;65787;59.922;10.742;2023-04-25T03:35:55;99169.78;;;9.51;49.36
51315;BME280;65787;59.922;10.742;2023-04-25T03:38:20;99165.97;;;9.34;50.78
51315;BME280;65787;59.922;10.742;2023-04-25T03:40:46;99158.22;;;9.25;50.52
51315;BME280;65787;59.922;10.742;2023-04-25T03:43:11;99158.53;;;9.36;50.79
51315;BME280;65787;59.922;10.742;2023-04-25T03:45:36;99159.84;;;9.26;51.05
51315;BME280;65787;59.922;10.742;2023-04-25T03:48:02;99167.41;;;9.36;51.34
51315;BME280;65787;59.922;10.742;2023-04-25T03:50:27;99177.81;;;9.19;50.88
51315;BME280;65787;59.922;10.742;2023-04-25T03:52:52;99171.63;;;9.19;51.03
51315;BME280;65787;59.922;10.742;2023-04-25T03:55:18;99180.16;;;9.09;50.85
51315;BME280;65787;59.922;10.742;2023-04-25T03:57:43;99184.25;;;9.11;51.36
51315;BME280;65787;59.922;10.742;2023-04-25T04:00:08;99184.53;;;9.03;52.00
51315;BME280;65787;59.922;10.742;2023-04-25T04:02:34;99185.69;;;9.14;51.51
51315;BME280;65787;59.922;10.742;2023-04-25T04:05:01;99175.63;;;9.09;52.06
51315;BME280;65787;59.922;10.742;2023-04-25T04:07:27;99174.31;;;8.87;51.59
51315;BME280;65787;59.922;10.742;2023-04-25T04:09:52;99186.50;;;8.76;51.74
51315;BME280;65787;59.922;10.742;2023-04-25T04:12:17;99186.72;;;8.75;52.35
51315;BME280;65787;59.922;10.742;2023-04-25T04:14:46;99192.22;;;8.86;52.20
51315;BME280;65787;59.922;10.742;2023-04-25T04:17:12;99187.72;;;8.80;52.65
51315;BME280;65787;59.922;10.742;2023-04-25T04:19:37;99186.56;;;8.69;52.31
51315;BME280;65787;59.922;10.742;2023-04-25T04:22:02;99199.13;;;8.62;52.21
51315;BME280;65787;59.922;10.742;2023-04-25T04:24:28;99193.59;;;8.57;53.68
51315;BME280;65787;59.922;10.742;2023-04-25T04:26:53;99192.59;;;8.51;54.06
51315;BME280;65787;59.922;10.742;2023-04-25T04:29:18;99198.59;;;8.47;53.85
51315;BME280;65787;59.922;10.742;2023-04-25T04:31:49;99193.81;;;8.56;53.79
51315;BME280;65787;59.922;10.742;2023-04-25T04:34:15;99192.59;;;8.51;53.33
51315;BME280;65787;59.922;10.742;2023-04-25T04:36:41;99199.34;;;8.54;53.92
51315;BME280;65787;59.922;10.742;2023-04-25T04:39:07;99202.63;;;8.56;53.64
51315;BME280;65787;59.922;10.742;2023-04-25T04:41:33;99196.06;;;8.59;53.42
51315;BME280;65787;59.922;10.742;2023-04-25T04:43:58;99202.22;;;8.59;54.45
51315;BME280;65787;59.922;10.742;2023-04-25T04:46:26;99203.50;;;8.50;54.76
51315;BME280;65787;59.922;10.742;2023-04-25T04:48:53;99190.72;;;8.52;54.09
51315;BME280;65787;59.922;10.742;2023-04-25T04:51:18;99196.53;;;8.49;53.26
51315;BME280;65787;59.922;10.742;2023-04-25T04:53:43;99197.94;;;8.58;54.87
51315;BME280;65787;59.922;10.742;2023-04-25T04:56:09;99204.09;;;8.52;54.25
51315;BME280;65787;59.922;10.742;2023-04-25T04:58:34;99202.63;;;8.69;54.38
51315;BME280;65787;59.922;10.742;2023-04-25T05:01:01;99195.66;;;8.55;53.76
51315;BME280;65787;59.922;10.742;2023-04-25T05:03:26;99201.16;;;8.67;54.86
51315;BME280;65787;59.922;10.742;2023-04-25T05:05:52;99198.75;;;8.59;53.68
51315;BME280;65787;59.922;10.742;2023-04-25T05:08:17;99196.00;;;8.72;54.42
51315;BME280;65787;59.922;10.742;2023-04-25T05:10:42;99191.03;;;8.82;53.72
51315;BME280;65787;59.922;10.742;2023-04-25T05:13:08;99193.72;;;8.76;54.35
51315;BME280;65787;59.922;10.742;2023-04-25T05:15:33;99192.25;;;8.80;54.32
51315;BME280;65787;59.922;10.742;2023-04-25T05:17:58;99190.19;;;8.82;54.36
51315;BME280;65787;59.922;10.742;2023-04-25T05:20:24;99204.03;;;8.72;53.53
51315;BME280;65787;59.922;10.742;2023-04-25T05:22:49;99187.94;;;8.79;54.16
51315;BME280;65787;59.922;10.742;2023-04-25T05:25:15;99181.41;;;8.68;54.10
51315;BME280;65787;59.922;10.742;2023-04-25T05:27:40;99189.31;;;8.49;53.33
51315;BME280;65787;59.922;10.742;2023-04-25T05:30:06;99194.59;;;8.69;53.68
51315;BME280;65787;59.922;10.742;2023-04-25T05:32:32;99198.06;;;8.70;54.17
51315;BME280;65787;59.922;10.742;2023-04-25T05:34:57;99191.03;;;8.76;53.33
51315;BME280;65787;59.922;10.742;2023-04-25T05:37:22;99196.97;;;8.84;53.64
51315;BME280;65787;59.922;10.742;2023-04-25T05:39:48;99202.28;;;8.91;53.42
51315;BME280;65787;59.922;10.742;2023-04-25T05:42:13;99196.94;;;8.91;51.85
51315;BME280;65787;59.922;10.742;2023-04-25T05:44:39;99207.41;;;8.99;53.81
51315;BME280;65787;59.922;10.742;2023-04-25T05:47:04;99196.09;;;8.97;52.60
51315;BME280;65787;59.922;10.742;2023-04-25T05:49:30;99201.25;;;8.92;53.25
51315;BME280;65787;59.922;10.742;2023-04-25T05:51:55;99140.72;;;8.52;53.31
51315;BME280;65787;59.922;10.742;2023-04-25T05:54:20;99200.69;;;8.83;52.26
51315;BME280;65787;59.922;10.742;2023-04-25T05:56:46;99203.50;;;8.95;52.58
51315;BME280;65787;59.922;10.742;2023-04-25T05:59:11;99211.94;;;8.99;52.66
51315;BME280;65787;59.922;10.742;2023-04-25T06:01:36;99205.16;;;8.96;53.02
51315;BME280;65787;59.922;10.742;2023-04-25T06:04:01;99207.66;;;8.91;53.86
51315;BME280;65787;59.922;10.742;2023-04-25T06:06:27;99212.09;;;9.04;53.35
51315;BME280;65787;59.922;10.742;2023-04-25T06:08:52;99217.22;;;9.12;52.85
51315;BME280;65787;59.922;10.742;2023-04-25T06:11:18;99211.09;;;9.05;52.66
51315;BME280;65787;59.922;10.742;2023-04-25T06:13:45;99205.53;;;9.06;52.82
51315;BME280;65787;59.922;10.742;2023-04-25T06:16:10;99214.56;;;9.05;53.14
51315;BME280;65787;59.922;10.742;2023-04-25T06:18:36;99208.75;;;9.15;53.87
51315;BME280;65787;59.922;10.742;2023-04-25T06:21:01;99212.09;;;9.10;52.54
51315;BME280;65787;59.922;10.742;2023-04-25T06:23:27;99207.25;;;8.87;53.33
51315;BME280;65787;59.922;10.742;2023-04-25T06:25:52;99213.00;;;8.91;53.56
51315;BME280;65787;59.922;10.742;2023-04-25T06:28:18;99224.00;;;9.15;53.77
51315;BME280;65787;59.922;10.742;2023-04-25T06:30:44;99218.84;;;9.20;53.20
51315;BME280;65787;59.922;10.742;2023-04-25T06:33:09;99213.25;;;9.21;52.60
51315;BME280;65787;59.922;10.742;2023-04-25T06:35:34;99211.00;;;9.18;51.99
51315;BME280;65787;59.922;10.742;2023-04-25T06:38:00;99217.31;;;9.30;53.50
51315;BME280;65787;59.922;10.742;2023-04-25T06:40:25;99219.34;;;9.35;52.55
51315;BME280;65787;59.922;10.742;2023-04-25T06:42:51;99219.13;;;9.37;51.98
51315;BME280;65787;59.922;10.742;2023-04-25T06:45:16;99229.16;;;9.48;52.08
51315;BME280;65787;59.922;10.742;2023-04-25T06:47:41;99219.81;;;9.57;52.77
51315;BME280;65787;59.922;10.742;2023-04-25T06:50:07;99221.28;;;9.53;51.23
51315;BME280;65787;59.922;10.742;2023-04-25T06:52:32;99222.53;;;9.50;51.54
51315;BME280;65787;59.922;10.742;2023-04-25T06:54:57;99215.94;;;9.53;51.89
51315;BME280;65787;59.922;10.742;2023-04-25T06:57:23;99227.03;;;9.57;52.22
51315;BME280;65787;59.922;10.742;2023-04-25T06:59:49;99222.50;;;9.57;51.82
51315;BME280;65787;59.922;10.742;2023-04-25T07:02:14;99219.78;;;9.64;51.76
51315;BME280;65787;59.922;10.742;2023-04-25T07:04:39;99230.69;;;9.62;52.05
51315;BME280;65787;59.922;10.742;2023-04-25T07:07:05;99229.00;;;9.68;51.89
51315;BME280;65787;59.922;10.742;2023-04-25T07:09:30;99224.69;;;9.67;51.24
51315;BME280;65787;59.922;10.742;2023-04-25T07:11:58;99230.63;;;9.69;51.32
51315;BME280;65787;59.922;10.742;2023-04-25T07:14:24;99235.53;;;9.79;51.38
51315;BME280;65787;59.922;10.742;2023-04-25T07:16:50;99232.22;;;9.77;50.51
51315;BME280;65787;59.922;10.742;2023-04-25T07:19:15;99238.75;;;9.87;50.54
51315;BME280;65787;59.922;10.742;2023-04-25T07:21:41;99235.84;;;9.89;51.34
51315;BME280;65787;59.922;10.742;2023-04-25T07:24:06;99239.34;;;9.89;52.04
51315;BME280;65787;59.922;10.742;2023-04-25T07:26:31;99244.47;;;9.91;52.24
51315;BME280;65787;59.922;10.742;2023-04-25T07:28:57;99236.50;;;9.84;49.66
51315;BME280;65787;59.922;10.742;2023-04-25T07:31:22;99245.94;;;9.94;51.71
51315;BME280;65787;59.922;10.742;2023-04-25T07:33:47;99248.75;;;9.99;51.05
51315;BME280;65787;59.922;10.742;2023-04-25T07:36:13;99256.53;;;10.07;50.70
51315;BME280;65787;59.922;10.742;2023-04-25T07:38:40;99255.25;;;10.10;51.31
51315;BME280;65787;59.922;10.742;2023-04-25T07:41:05;99248.28;;;10.08;51.02
51315;BME280;65787;59.922;10.742;2023-04-25T07:43:30;99264.06;;;10.17;51.33
51315;BME280;65787;59.922;10.742;2023-04-25T07:45:56;99265.34;;;10.14;50.92
51315;BME280;65787;59.922;10.742;2023-04-25T07:48:22;99260.31;;;9.99;50.40
51315;BME280;65787;59.922;10.742;2023-04-25T07:50:47;99262.63;;;9.96;51.34
51315;BME280;65787;59.922;10.742;2023-04-25T07:53:13;99260.03;;;10.07;51.47
51315;BME280;65787;59.922;10.742;2023-04-25T07:55:38;99263.13;;;10.04;51.50
51315;BME280;65787;59.922;10.742;2023-04-25T07:58:08;99269.47;;;10.10;51.09
51315;BME280;65787;59.922;10.742;2023-04-25T08:00:34;99267.06;;;10.08;50.54
51315;BME280;65787;59.922;10.742;2023-04-25T08:03:00;99264.59;;;10.07;51.76
51315;BME280;65787;59.922;10.742;2023-04-25T08:05:25;99269.38;;;9.98;51.38
51315;BME280;65787;59.922;10.742;2023-04-25T08:07:50;99280.28;;;9.78;50.35
51315;BME280;65787;59.922;10.742;2023-04-25T08:10:16;99273.09;;;9.97;51.26
51315;BME280;65787;59.922;10.742;2023-04-25T08:12:41;99276.56;;;10.04;49.98
51315;BME280;65787;59.922;10.742;2023-04-25T08:15:06;99226.22;;;9.81;51.27
51315;BME280;65787;59.922;10.742;2023-04-25T08:17:32;99278.28;;;10.17;50.52
51315;BME280;65787;59.922;10.742;2023-04-25T08:19:58;99281.47;;;10.07;49.96
51315;BME280;65787;59.922;10.742;2023-04-25T08:22:23;99273.09;;;9.97;50.08
51315;BME280;65787;59.922;10.742;2023-04-25T08:24:48;99284.94;;;9.89;51.10
51315;BME280;65787;59.922;10.742;2023-04-25T08:27:14;99285.66;;;10.03;51.06
51315;BME280;65787;59.922;10.742;2023-04-25T08:29:39;99284.78;;;10.10;50.56
51315;BME280;65787;59.922;10.742;2023-04-25T08:32:04;99284.72;;;10.16;50.63
51315;BME280;65787;59.922;10.742;2023-04-25T08:34:30;99288.50;;;10.08;50.10
51315;BME280;65787;59.922;10.742;2023-04-25T08:36:55;99292.31;;;10.19;50.35
51315;BME280;65787;59.922;10.742;2023-04-25T08:39:20;99292.69;;;10.23;51.19
51315;BME280;65787;59.922;10.742;2023-04-25T08:41:46;99292.25;;;10.26;50.32
51315;BME280;65787;59.922;10.742;2023-04-25T08:44:11;99293.06;;;10.33;50.48
51315;BME280;65787;59.922;10.742;2023-04-25T08:46:37;99297.84;;;10.24;50.41
51315;BME280;65787;59.922;10.742;2023-04-25T08:49:03;99298.00;;;10.30;50.24
51315;BME280;65787;59.922;10.742;2023-04-25T08:51:30;99305.66;;;10.33;49.19
51315;BME280;65787;59.922;10.742;2023-04-25T08:53:56;99308.94;;;10.35;49.80
51315;BME280;65787;59.922;10.742;2023-04-25T08:56:27;99303.13;;;10.38;50.75
51315;BME280;65787;59.922;10.742;2023-04-25T08:58:53;99306.63;;;10.13;50.19
51315;BME280;65787;59.922;10.742;2023-04-25T09:01:20;99313.63;;;10.39;51.34
51315;BME280;65787;59.922;10.742;2023-04-25T09:03:45;99311.94;;;10.45;50.81
51315;BME280;65787;59.922;10.742;2023-04-25T09:06:12;99315.59;;;10.51;50.24
51315;BME280;65787;59.922;10.742;2023-04-25T09:08:37;99312.03;;;10.57;50.35
51315;BME280;65787;59.922;10.742;2023-04-25T09:11:05;99321.66;;;10.64;49.23
51315;BME280;65787;59.922;10.742;2023-04-25T09:13:31;99319.41;;;10.61;49.66
51315;BME280;65787;59.922;10.742;2023-04-25T09:15:56;99321.06;;;10.62;49.73
51315;BME280;65787;59.922;10.742;2023-04-25T09:18:23;99322.25;;;10.67;49.98
51315;BME280;65787;59.922;10.742;2023-04-25T09:20:51;99326.88;;;10.78;50.01
51315;BME280;65787;59.922;10.742;2023-04-25T09:23:16;99334.25;;;10.82;49.64
51315;BME280;65787;59.922;10.742;2023-04-25T09:25:44;99330.47;;;10.90;49.34
51315;BME280;65787;59.922;10.742;2023-04-25T09:28:11;99345.00;;;11.01;48.91
51315;BME280;65787;59.922;10.742;2023-04-25T09:30:37;99332.53;;;11.07;49.50
51315;BME280;65787;59.922;10.742;2023-04-25T09:33:06;99335.09;;;11.20;48.87
51315;BME280;65787;59.922;10.742;2023-04-25T09:35:42;99333.97;;;11.28;48.28
51315;BME280;65787;59.922;10.742;2023-04-25T09:38:11;99337.03;;;11.31;48.96
51315;BME280;65787;59.922;10.742;2023-04-25T09:40:43;99326.69;;;11.47;49.03
51315;BME280;65787;59.922;10.742;2023-04-25T09:43:18;99341.91;;;11.53;48.62
51315;BME280;65787;59.922;10.742;2023-04-25T09:45:44;99342.44;;;11.73;47.97
51315;BME280;65787;59.922;10.742;2023-04-25T09:48:10;99339.03;;;11.96;49.13
51315;BME280;65787;59.922;10.742;2023-04-25T09:50:36;99348.41;;;11.75;45.83
51315;BME280;65787;59.922;10.742;2023-04-25T09:53:04;99337.88;;;12.04;48.01
51315;BME280;65787;59.922;10.742;2023-04-25T09:55:32;99346.22;;;12.50;49.41
51315;BME280;65787;59.922;10.742;2023-04-25T09:58:01;99333.94;;;12.66;47.97
51315;BME280;65787;59.922;10.742;2023-04-25T10:00:28;99344.34;;;12.86;47.96
51315;BME280;65787;59.922;10.742;2023-04-25T10:02:53;99349.38;;;12.94;45.02
51315;BME280;65787;59.922;10.742;2023-04-25T10:05:19;99346.03;;;13.27;47.43
51315;BME280;65787;59.922;10.742;2023-04-25T10:07:45;99342.88;;;13.59;47.35
51315;BME280;65787;59.922;10.742;2023-04-25T10:10:10;99344.31;;;13.62;45.64
51315;BME280;65787;59.922;10.742;2023-04-25T10:12:37;99346.88;;;13.85;46.23
51315;BME280;65787;59.922;10.742;2023-04-25T10:15:04;99339.06;;;14.18;45.63
51315;BME280;65787;59.922;10.742;2023-04-25T10:17:30;99339.19;;;14.45;46.19
51315;BME280;65787;59.922;10.742;2023-04-25T10:19:56;99335.59;;;14.39;46.10
51315;BME280;65787;59.922;10.742;2023-04-25T10:24:50;99347.16;;;14.68;45.66
51315;BME280;65787;59.922;10.742;2023-04-25T10:27:16;99343.06;;;14.49;45.85
51315;BME280;65787;59.922;10.742;2023-04-25T10:29:41;99354.22;;;14.69;45.99
51315;BME280;65787;59.922;10.742;2023-04-25T10:32:08;99351.63;;;14.80;42.97
51315;BME280;65787;59.922;10.742;2023-04-25T10:34:37;99361.63;;;14.79;45.54
51315;BME280;65787;59.922;10.742;2023-04-25T10:37:03;99350.09;;;14.67;45.43
51315;BME280;65787;59.922;10.742;2023-04-25T10:39:29;99359.19;;;14.78;44.18
51315;BME280;65787;59.922;10.742;2023-04-25T10:41:57;99360.19;;;14.71;44.88
51315;BME280;65787;59.922;10.742;2023-04-25T10:44:26;99368.44;;;14.65;44.69
51315;BME280;65787;59.922;10.742;2023-04-25T10:46:54;99367.31;;;14.61;46.08
51315;BME280;65787;59.922;10.742;2023-04-25T10:49:33;99366.84;;;14.64;45.32
51315;BME280;65787;59.922;10.742;2023-04-25T10:52:18;99364.44;;;14.50;44.12
51315;BME280;65787;59.922;10.742;2023-04-25T10:54:48;99370.75;;;14.56;43.56
51315;BME280;65787;59.922;10.742;2023-04-25T10:59:59;99377.03;;;14.45;44.64
51315;BME280;65787;59.922;10.742;2023-04-25T11:02:28;99374.50;;;14.38;45.58
51315;BME280;65787;59.922;10.742;2023-04-25T11:04:54;99368.09;;;14.44;45.76
51315;BME280;65787;59.922;10.742;2023-04-25T11:07:22;99376.88;;;14.51;46.69
51315;BME280;65787;59.922;10.742;2023-04-25T11:09:48;99379.31;;;14.53;45.47
51315;BME280;65787;59.922;10.742;2023-04-25T11:12:14;99381.22;;;14.52;46.22
51315;BME280;65787;59.922;10.742;2023-04-25T11:14:40;99370.25;;;14.42;44.37
51315;BME280;65787;59.922;10.742;2023-04-25T11:17:05;99370.91;;;14.32;44.82
51315;BME280;65787;59.922;10.742;2023-04-25T11:19:31;99381.94;;;14.14;45.80
51315;BME280;65787;59.922;10.742;2023-04-25T11:21:59;99369.81;;;14.17;45.80
51315;BME280;65787;59.922;10.742;2023-04-25T11:24:29;99369.81;;;14.00;43.88
51315;BME280;65787;59.922;10.742;2023-04-25T11:26:55;99384.41;;;14.16;45.59
51315;BME280;65787;59.922;10.742;2023-04-25T11:29:23;99379.94;;;13.92;42.14
51315;BME280;65787;59.922;10.742;2023-04-25T11:31:51;99382.81;;;14.03;46.57
51315;BME280;65787;59.922;10.742;2023-04-25T11:34:20;99383.63;;;14.03;45.08
51315;BME280;65787;59.922;10.742;2023-04-25T11:36:45;99387.63;;;13.84;46.18
51315;BME280;65787;59.922;10.742;2023-04-25T11:39:11;99391.03;;;13.79;46.66
51315;BME280;65787;59.922;10.742;2023-04-25T11:41:39;99393.66;;;13.91;48.30
51315;BME280;65787;59.922;10.742;2023-04-25T11:44:05;99395.31;;;13.92;45.53
51315;BME280;65787;59.922;10.742;2023-04-25T11:46:33;99389.09;;;13.91;46.89
51315;BME280;65787;59.922;10.742;2023-04-25T11:48:59;99399.19;;;14.13;47.66
51315;BME280;65787;59.922;10.742;2023-04-25T11:51:24;99397.56;;;14.12;45.85
51315;BME280;65787;59.922;10.742;2023-04-25T11:53:51;99393.06;;;14.18;45.40
51315;BME280;65787;59.922;10.742;2023-04-25T11:56:16;99401.75;;;14.20;46.98
51315;BME280;65787;59.922;10.742;2023-04-25T12:01:47;99404.84;;;14.11;44.35
51315;BME280;65787;59.922;10.742;2023-04-25T12:04:13;99415.66;;;14.11;45.06
51315;BME280;65787;59.922;10.742;2023-04-25T12:06:39;99403.34;;;14.04;44.69
51315;BME280;65787;59.922;10.742;2023-04-25T12:09:07;99401.97;;;14.18;44.56
51315;BME280;65787;59.922;10.742;2023-04-25T12:11:40;99403.78;;;14.29;44.89
51315;BME280;65787;59.922;10.742;2023-04-25T12:14:05;99409.19;;;14.29;45.26
51315;BME280;65787;59.922;10.742;2023-04-25T12:16:44;99412.31;;;14.38;46.32
51315;BME280;65787;59.922;10.742;2023-04-25T12:19:13;99412.22;;;14.16;45.50
51315;BME280;65787;59.922;10.742;2023-04-25T12:21:38;99411.56;;;14.26;45.37
51315;BME280;65787;59.922;10.742;2023-04-25T12:27:02;99420.00;;;14.29;46.75
51315;BME280;65787;59.922;10.742;2023-04-25T12:29:28;99419.75;;;14.31;46.67
51315;BME280;65787;59.922;10.742;2023-04-25T12:31:54;99419.09;;;14.24;44.22
51315;BME280;65787;59.922;10.742;2023-04-25T12:34:20;99416.16;;;14.25;46.06
51315;BME280;65787;59.922;10.742;2023-04-25T12:36:46;99427.59;;;14.16;45.07
51315;BME280;65787;59.922;10.742;2023-04-25T12:39:14;99418.75;;;14.20;45.19
51315;BME280;65787;59.922;10.742;2023-04-25T12:41:39;99425.84;;;14.09;47.70
51315;BME280;65787;59.922;10.742;2023-04-25T12:44:05;99428.16;;;14.18;47.08
51315;BME280;65787;59.922;10.742;2023-04-25T12:46:31;99433.06;;;14.21;46.27
51315;BME280;65787;59.922;10.742;2023-04-25T12:48:56;99434.63;;;14.17;46.06
51315;BME280;65787;59.922;10.742;2023-04-25T12:51:22;99430.88;;;14.18;46.12
51315;BME280;65787;59.922;10.742;2023-04-25T12:53:50;99434.38;;;14.18;47.06
51315;BME280;65787;59.922;10.742;2023-04-25T12:56:15;99433.84;;;14.33;46.79
51315;BME280;65787;59.922;10.742;2023-04-25T12:58:41;99432.59;;;14.24;46.19
51315;BME280;65787;59.922;10.742;2023-04-25T13:01:09;99433.34;;;14.36;47.07